Time;durP1;ratioP1;P1;durP2;ratioP2;P2;SDS_P1;SDS_P2;PMS_P1;PMS_P2;Temp;Humidity;BMP_temperature;BMP_pressure;BME280_temperature;BME280_humidity;BME280_pressure;Samples;Min_cycle;Max_cycle;Signal;HPM_P1;HPM_P2
2023/08/16 00:01:13;;;;;;;10.70;3.00;;;;;;;15.93;100.00;101774.75;7393902;19;20927;-41
2023/08/16 00:03:43;;;;;;;8.37;2.80;;;;;;;15.99;100.00;101767.16;7364038;19;20815;-41
2023/08/16 00:06:16;;;;;;;8.03;2.40;;;;;;;15.87;100.00;101756.28;7393267;19;20403;-43
2023/08/16 00:08:46;;;;;;;8.03;3.33;;;;;;;15.97;100.00;101747.13;7361901;19;20502;-41
2023/08/16 00:11:16;;;;;;;7.90;3.20;;;;;;;15.90;100.00;101725.19;7389351;19;21170;-40
2023/08/16 00:13:45;;;;;;;8.33;3.37;;;;;;;15.88;100.00;101726.81;7368326;19;20474;-41
2023/08/16 00:16:15;;;;;;;8.40;3.77;;;;;;;15.89;100.00;101713.00;7393908;19;20404;-40
2023/08/16 00:18:45;;;;;;;9.57;4.30;;;;;;;15.82;100.00;101711.91;7365579;19;20435;-40
2023/08/16 00:21:17;;;;;;;8.33;3.30;;;;;;;15.87;100.00;101697.34;7394373;19;20393;-40
2023/08/16 00:23:47;;;;;;;7.00;3.13;;;;;;;15.69;100.00;101696.69;7368253;19;20423;-40
2023/08/16 00:26:17;;;;;;;7.40;3.90;;;;;;;15.70;100.00;101685.44;7395143;19;20375;-41
2023/08/16 00:28:48;;;;;;;8.13;2.67;;;;;;;15.62;100.00;101686.06;7367509;19;20438;-41
2023/08/16 00:31:18;;;;;;;13.47;4.03;;;;;;;15.52;100.00;101689.16;7395320;19;20427;-40
2023/08/16 00:33:48;;;;;;;7.47;2.83;;;;;;;15.55;100.00;101677.97;7368545;19;20502;-41
2023/08/16 00:36:20;;;;;;;6.70;3.30;;;;;;;15.59;100.00;101674.66;7393699;19;20930;-39
2023/08/16 00:38:49;;;;;;;7.43;3.03;;;;;;;15.44;100.00;101673.25;7368465;19;20442;-44
2023/08/16 00:41:19;;;;;;;8.40;3.20;;;;;;;15.38;100.00;101668.75;7394142;19;20406;-42
2023/08/16 00:43:48;;;;;;;8.00;3.43;;;;;;;15.49;100.00;101663.91;7368374;19;20453;-40
2023/08/16 00:46:23;;;;;;;8.43;3.20;;;;;;;15.45;100.00;101666.38;7392524;19;20402;-41
2023/08/16 00:48:53;;;;;;;8.77;3.70;;;;;;;15.47;100.00;101660.38;7367183;19;20497;-43
2023/08/16 00:51:25;;;;;;;9.10;3.40;;;;;;;15.46;100.00;101657.72;7392833;19;20994;-39
2023/08/16 00:53:55;;;;;;;6.80;3.13;;;;;;;15.41;100.00;101656.66;7369138;19;20418;-39
2023/08/16 00:56:25;;;;;;;6.23;2.80;;;;;;;15.24;100.00;101657.81;7395105;19;20399;-42
2023/08/16 00:58:54;;;;;;;7.33;3.20;;;;;;;15.36;100.00;101648.72;7368501;19;20431;-39
2023/08/16 01:01:24;;;;;;;7.70;3.30;;;;;;;15.42;100.00;101632.47;7394696;19;20821;-40
2023/08/16 01:03:54;;;;;;;6.87;3.63;;;;;;;15.40;100.00;101629.81;7368379;19;20491;-39
2023/08/16 01:06:26;;;;;;;7.17;2.90;;;;;;;15.29;100.00;101631.13;7390964;19;20408;-40
2023/08/16 01:08:56;;;;;;;5.27;2.97;;;;;;;15.27;100.00;101632.78;7367810;19;20441;-40
2023/08/16 01:11:30;;;;;;;7.63;3.33;;;;;;;15.33;100.00;101630.41;7393098;19;20725;-43
2023/08/16 01:14:05;;;;;;;6.50;3.30;;;;;;;15.35;100.00;101623.53;7367756;19;20431;-40
2023/08/16 01:16:36;;;;;;;10.33;3.13;;;;;;;15.22;100.00;101630.00;7394408;19;20945;-39
2023/08/16 01:19:12;;;;;;;7.50;3.20;;;;;;;15.22;100.00;101619.59;7367091;19;20434;-40
2023/08/16 01:21:49;;;;;;;12.87;3.60;;;;;;;15.21;100.00;101616.13;7391607;19;20941;-39
2023/08/16 01:24:23;;;;;;;10.90;4.03;;;;;;;15.16;100.00;101620.28;7369808;19;20487;-40
2023/08/16 01:26:56;;;;;;;8.43;3.50;;;;;;;15.09;100.00;101618.28;7392044;19;20443;-44
2023/08/16 01:29:26;;;;;;;6.27;3.87;;;;;;;15.17;100.00;101615.97;7369909;19;20430;-44
2023/08/16 01:31:56;;;;;;;9.17;3.50;;;;;;;15.11;100.00;101611.41;7371105;19;20394;-39
2023/08/16 01:34:25;;;;;;;10.50;4.10;;;;;;;15.06;100.00;101625.94;7393260;19;20392;-40
2023/08/16 01:36:55;;;;;;;6.30;3.40;;;;;;;15.01;100.00;101619.72;7374668;19;20396;-39
2023/08/16 01:39:25;;;;;;;10.60;3.80;;;;;;;14.93;100.00;101615.09;7392835;19;20434;-40
2023/08/16 01:41:58;;;;;;;11.93;5.20;;;;;;;14.87;100.00;101617.47;7381460;19;20405;-38
2023/08/16 01:44:28;;;;;;;12.93;4.03;;;;;;;14.83;100.00;101610.41;7390466;19;20479;-41
2023/08/16 01:46:59;;;;;;;8.90;4.17;;;;;;;14.66;100.00;101615.81;7371825;19;20407;-39
2023/08/16 01:49:29;;;;;;;5.67;3.47;;;;;;;14.62;100.00;101613.94;7395399;19;20551;-40
2023/08/16 01:51:58;;;;;;;9.33;3.67;;;;;;;14.57;100.00;101618.06;7371921;19;20411;-40
2023/08/16 01:54:28;;;;;;;7.63;4.20;;;;;;;14.68;100.00;101606.34;7393511;19;20415;-39
2023/08/16 01:57:01;;;;;;;8.30;3.70;;;;;;;14.74;100.00;101600.56;7372552;19;20487;-40
2023/08/16 01:59:31;;;;;;;8.50;3.50;;;;;;;14.77;100.00;101602.38;7393282;19;20447;-39
2023/08/16 02:02:02;;;;;;;9.23;3.67;;;;;;;14.76;100.00;101608.41;7371248;19;20459;-40
2023/08/16 02:04:31;;;;;;;13.30;4.07;;;;;;;14.57;100.00;101607.66;7393302;19;20392;-40
2023/08/16 02:07:01;;;;;;;14.63;3.97;;;;;;;14.57;100.00;101602.47;7369867;19;20394;-41
2023/08/16 02:09:31;;;;;;;7.60;3.83;;;;;;;14.61;100.00;101612.13;7389655;19;20467;-43
2023/08/16 02:12:03;;;;;;;9.40;3.70;;;;;;;14.53;100.00;101605.78;7369559;19;20388;-39
2023/08/16 02:14:33;;;;;;;6.00;3.83;;;;;;;14.43;100.00;101605.41;7391223;19;20931;-41
2023/08/16 02:17:02;;;;;;;13.33;3.63;;;;;;;14.40;100.00;101602.69;7369113;19;20419;-39
2023/08/16 02:19:32;;;;;;;11.03;3.87;;;;;;;14.17;100.00;101613.03;7390991;19;20448;-42
2023/08/16 02:22:02;;;;;;;9.30;4.70;;;;;;;14.14;100.00;101618.09;7367772;19;20488;-39
2023/08/16 02:24:32;;;;;;;7.17;4.70;;;;;;;14.08;100.00;101617.84;7389351;19;20396;-40
2023/08/16 02:27:04;;;;;;;7.47;3.67;;;;;;;14.02;100.00;101622.78;7369104;19;20953;-39
2023/08/16 02:29:34;;;;;;;6.80;3.97;;;;;;;14.20;100.00;101626.97;7390752;19;20430;-39
2023/08/16 02:32:03;;;;;;;14.43;5.27;;;;;;;14.13;100.00;101618.94;7366871;19;20813;-42
2023/08/16 02:34:33;;;;;;;8.30;4.53;;;;;;;14.35;100.00;101609.41;7388280;19;20383;-39
2023/08/16 02:37:03;;;;;;;15.20;4.30;;;;;;;14.31;100.00;101604.94;7363394;19;20401;-45
2023/08/16 02:39:32;;;;;;;14.73;4.30;;;;;;;14.23;100.00;101606.31;7389751;19;20807;-43
2023/08/16 02:42:04;;;;;;;10.40;5.50;;;;;;;14.22;100.00;101615.84;7366937;19;20398;-39
2023/08/16 02:44:34;;;;;;;10.30;5.27;;;;;;;14.25;100.00;101618.53;7389455;19;20394;-41
2023/08/16 02:47:04;;;;;;;7.73;4.37;;;;;;;14.13;100.00;101611.16;7368644;19;20568;-39
2023/08/16 02:49:33;;;;;;;11.23;5.20;;;;;;;14.20;100.00;101614.00;7390243;19;20420;-39
2023/08/16 02:52:03;;;;;;;11.23;5.13;;;;;;;14.27;100.00;101613.41;7368552;19;20482;-41
2023/08/16 02:54:32;;;;;;;11.20;5.07;;;;;;;14.40;100.00;101618.25;7389639;19;20472;-40
2023/08/16 02:57:05;;;;;;;9.23;5.07;;;;;;;14.47;100.00;101615.91;7366955;19;20395;-40
2023/08/16 02:59:42;;;;;;;11.33;4.97;;;;;;;14.45;100.00;101619.34;7389546;19;20430;-39
2023/08/16 03:02:12;;;;;;;14.40;6.27;;;;;;;14.43;100.00;101621.00;7367612;19;20399;-41
2023/08/16 03:04:41;;;;;;;13.00;4.97;;;;;;;14.50;100.00;101627.31;7389117;19;20410;-39
2023/08/16 03:07:12;;;;;;;15.63;6.23;;;;;;;14.28;100.00;101631.66;7367195;19;20389;-40
2023/08/16 03:09:42;;;;;;;10.30;5.83;;;;;;;14.29;100.00;101629.91;7393388;19;20810;-39
2023/08/16 03:12:14;;;;;;;11.10;5.57;;;;;;;14.34;100.00;101640.47;7366257;19;20473;-40
2023/08/16 03:14:43;;;;;;;12.17;6.03;;;;;;;14.35;100.00;101647.47;7389190;19;20392;-40
2023/08/16 03:17:13;;;;;;;13.30;6.73;;;;;;;14.34;100.00;101645.66;7368915;19;20383;-39
2023/08/16 03:19:43;;;;;;;9.97;6.20;;;;;;;14.33;100.00;101650.00;7389127;19;20443;-40
2023/08/16 03:22:13;;;;;;;12.50;6.70;;;;;;;14.41;100.00;101652.91;7366423;19;20399;-39
2023/08/16 03:24:43;;;;;;;14.00;6.87;;;;;;;14.22;100.00;101661.66;7389145;19;20878;-38
2023/08/16 03:27:16;;;;;;;14.00;6.97;;;;;;;14.26;100.00;101654.03;7368487;19;20384;-39
2023/08/16 03:29:45;;;;;;;10.10;6.60;;;;;;;14.32;100.00;101653.44;7388478;19;20430;-40
2023/08/16 03:32:15;;;;;;;15.57;7.53;;;;;;;14.34;100.00;101656.97;7365571;19;20376;-39
2023/08/16 03:34:45;;;;;;;22.50;7.90;;;;;;;14.18;100.00;101660.63;7390023;19;20736;-42
2023/08/16 03:37:14;;;;;;;13.27;6.17;;;;;;;14.01;100.00;101659.94;7367715;19;20427;-40
2023/08/16 03:39:44;;;;;;;15.10;6.80;;;;;;;14.16;100.00;101670.94;7388481;19;20435;-42
2023/08/16 03:42:16;;;;;;;15.10;8.47;;;;;;;14.12;100.00;101660.38;7366823;19;20523;-39
2023/08/16 03:44:46;;;;;;;22.13;8.80;;;;;;;14.17;100.00;101664.94;7387974;19;20396;-39
2023/08/16 03:47:15;;;;;;;14.23;7.80;;;;;;;14.31;100.00;101662.03;7374039;19;20425;-40
2023/08/16 03:49:45;;;;;;;20.00;8.20;;;;;;;14.33;100.00;101665.56;7395215;19;21043;-40
2023/08/16 03:52:15;;;;;;;14.10;8.07;;;;;;;14.31;100.00;101672.41;7371605;19;20376;-40
2023/08/16 03:54:44;;;;;;;20.27;8.50;;;;;;;14.23;100.00;101663.41;7393654;19;20780;-40
2023/08/16 03:57:16;;;;;;;34.40;8.67;;;;;;;14.32;100.00;101674.19;7374473;19;20391;-43
2023/08/16 03:59:46;;;;;;;21.47;8.73;;;;;;;14.31;100.00;101683.66;7394559;19;20846;-40
2023/08/16 04:02:16;;;;;;;15.60;7.90;;;;;;;14.23;100.00;101684.19;7371864;19;20407;-40
2023/08/16 04:04:46;;;;;;;18.57;8.03;;;;;;;14.00;100.00;101686.72;7393999;19;20388;-40
2023/08/16 04:07:15;;;;;;;29.57;8.60;;;;;;;13.87;100.00;101701.75;7371556;19;20519;-41
2023/08/16 04:09:45;;;;;;;14.97;8.30;;;;;;;13.81;100.00;101701.47;7393476;19;20478;-39
2023/08/16 04:12:17;;;;;;;17.20;8.70;;;;;;;13.76;100.00;101702.97;7371514;19;20372;-40
2023/08/16 04:14:47;;;;;;;15.93;8.17;;;;;;;13.89;100.00;101707.88;7392661;19;20398;-40
2023/08/16 04:17:16;;;;;;;20.77;8.20;;;;;;;13.84;100.00;101706.78;7373764;19;20409;-39
2023/08/16 04:19:46;;;;;;;17.20;7.60;;;;;;;13.85;100.00;101702.50;7393000;19;20436;-40
2023/08/16 04:22:15;;;;;;;13.00;8.20;;;;;;;13.83;100.00;101699.84;7374428;19;20381;-40
2023/08/16 04:24:45;;;;;;;16.33;9.07;;;;;;;13.90;100.00;101706.19;7393796;19;20392;-39
2023/08/16 04:27:18;;;;;;;16.33;7.90;;;;;;;13.84;100.00;101704.19;7373895;19;20382;-41
2023/08/16 04:29:48;;;;;;;14.20;8.10;;;;;;;13.79;100.00;101707.41;7393759;19;20419;-40
2023/08/16 04:32:17;;;;;;;12.43;7.57;;;;;;;13.74;100.00;101707.22;7370386;19;20402;-39
2023/08/16 04:34:47;;;;;;;11.70;6.80;;;;;;;13.86;100.00;101717.25;7395274;19;20398;-39
2023/08/16 04:37:16;;;;;;;14.70;6.50;;;;;;;13.82;100.00;101717.91;7371424;19;20403;-39
2023/08/16 04:39:46;;;;;;;18.57;9.27;;;;;;;13.86;100.00;101719.84;7392222;19;20491;-39
2023/08/16 04:42:19;;;;;;;17.33;8.97;;;;;;;13.75;100.00;101717.66;7370921;19;20423;-40
2023/08/16 04:44:50;;;;;;;82.63;43.17;;;;;;;13.84;100.00;101721.47;7392966;19;20460;-43
2023/08/16 04:47:19;;;;;;;48.23;27.17;;;;;;;13.92;100.00;101720.09;7372129;19;20398;-39
2023/08/16 04:49:51;;;;;;;45.90;17.97;;;;;;;13.77;100.00;101729.00;7392663;19;20415;-40
2023/08/16 04:52:20;;;;;;;25.43;14.50;;;;;;;13.70;100.00;101728.66;7370941;19;20419;-39
2023/08/16 04:54:50;;;;;;;21.53;10.57;;;;;;;13.71;100.00;101731.31;7392507;19;20396;-39
2023/08/16 04:57:22;;;;;;;18.33;10.33;;;;;;;13.79;100.00;101738.53;7369540;19;20391;-40
2023/08/16 04:59:55;;;;;;;25.27;12.60;;;;;;;13.73;100.00;101739.13;7394366;19;20434;-39
2023/08/16 05:02:25;;;;;;;24.67;12.50;;;;;;;13.66;100.00;101740.59;7369287;19;20419;-39
2023/08/16 05:04:54;;;;;;;27.90;13.10;;;;;;;13.71;100.00;101745.97;7392801;19;20409;-39
2023/08/16 05:07:24;;;;;;;20.57;12.07;;;;;;;13.70;100.00;101754.56;7368798;19;20423;-41
2023/08/16 05:09:54;;;;;;;20.40;12.10;;;;;;;13.69;100.00;101752.81;7392535;19;21047;-39
2023/08/16 05:12:26;;;;;;;30.30;17.00;;;;;;;13.97;100.00;101748.81;7369728;19;20387;-40
2023/08/16 05:14:56;;;;;;;27.00;14.13;;;;;;;14.02;100.00;101747.31;7395437;19;20408;-44
2023/08/16 05:17:26;;;;;;;24.67;13.00;;;;;;;13.97;100.00;101743.63;7370743;19;20963;-40
2023/08/16 05:19:56;;;;;;;23.80;12.73;;;;;;;13.90;100.00;101752.88;7393652;19;20460;-41
2023/08/16 05:22:26;;;;;;;31.43;13.47;;;;;;;13.94;100.00;101756.50;7369935;19;20395;-39
2023/08/16 05:24:56;;;;;;;22.77;13.53;;;;;;;14.00;100.00;101764.53;7391297;19;20400;-39
2023/08/16 05:27:28;;;;;;;24.60;12.33;;;;;;;14.35;100.00;101767.75;7368616;19;20398;-39
2023/08/16 05:29:59;;;;;;;30.20;13.10;;;;;;;14.53;100.00;101757.28;7392512;19;20776;-41
2023/08/16 05:32:28;;;;;;;26.37;13.60;;;;;;;14.80;100.00;101755.75;7372318;19;20416;-40
2023/08/16 05:34:58;;;;;;;45.10;27.10;;;;;;;14.72;100.00;101758.03;7391442;19;20395;-39
2023/08/16 05:37:28;;;;;;;21.40;12.77;;;;;;;14.51;100.00;101755.44;7373651;19;20439;-39
2023/08/16 05:39:57;;;;;;;27.00;11.17;;;;;;;14.44;100.00;101768.16;7391427;19;20412;-39
2023/08/16 05:42:32;;;;;;;20.60;11.83;;;;;;;14.44;100.00;101785.44;7369155;19;20427;-39
2023/08/16 05:45:02;;;;;;;27.10;12.70;;;;;;;14.47;100.00;101782.06;7392655;19;20399;-44
2023/08/16 05:47:32;;;;;;;22.63;13.20;;;;;;;14.47;100.00;101788.16;7369234;19;20395;-41
2023/08/16 05:50:02;;;;;;;25.27;13.23;;;;;;;14.44;100.00;101788.94;7391515;19;20408;-40
2023/08/16 05:52:32;;;;;;;25.50;13.07;;;;;;;14.42;100.00;101795.75;7373636;19;20438;-40
2023/08/16 05:55:01;;;;;;;27.40;13.80;;;;;;;14.49;100.00;101790.81;7390719;19;20376;-39
2023/08/16 05:57:34;;;;;;;26.53;14.10;;;;;;;14.54;100.00;101800.59;7370726;19;20452;-40
2023/08/16 06:00:04;;;;;;;24.53;12.60;;;;;;;14.61;100.00;101791.31;7391641;19;20424;-40
2023/08/16 06:02:34;;;;;;;19.77;12.00;;;;;;;14.69;100.00;101789.94;7368321;19;20478;-39
2023/08/16 06:05:04;;;;;;;20.67;12.13;;;;;;;14.77;100.00;101786.81;7392813;19;20781;-42
2023/08/16 06:07:34;;;;;;;24.70;12.40;;;;;;;14.76;100.00;101791.09;7366748;19;20399;-40
2023/08/16 06:10:04;;;;;;;21.13;11.50;;;;;;;15.10;100.00;101791.59;7390892;19;20431;-42
2023/08/16 06:12:36;;;;;;;23.90;11.57;;;;;;;15.32;100.00;101789.81;7368200;19;20399;-39
2023/08/16 06:15:11;;;;;;;21.83;12.73;;;;;;;15.34;100.00;101782.97;7392127;19;20384;-41
2023/08/16 06:17:40;;;;;;;19.80;10.50;;;;;;;15.62;100.00;101787.50;7368045;19;20473;-42
2023/08/16 06:20:12;;;;;;;86.47;54.27;;;;;;;15.66;100.00;101793.72;7390875;19;20416;-41
2023/08/16 06:22:42;;;;;;;206.47;127.73;;;;;;;15.82;100.00;101797.75;7367405;19;20400;-40
2023/08/16 06:25:12;;;;;;;17.73;9.93;;;;;;;16.01;100.00;101817.53;7390434;19;20466;-43
2023/08/16 06:27:44;;;;;;;22.77;13.37;;;;;;;15.95;100.00;101830.38;7368043;19;20482;-40
2023/08/16 06:30:15;;;;;;;15.07;6.67;;;;;;;15.83;100.00;101842.91;7389899;19;20822;-40
2023/08/16 06:32:46;;;;;;;38.37;20.30;;;;;;;15.94;100.00;101854.59;7366616;19;20391;-42
2023/08/16 06:35:16;;;;;;;12.60;6.63;;;;;;;15.90;100.00;101869.19;7391879;19;20383;-40
2023/08/16 06:37:47;;;;;;;17.20;9.63;;;;;;;16.00;100.00;101882.59;7367312;19;20391;-40
2023/08/16 06:40:17;;;;;;;16.60;5.90;;;;;;;15.94;100.00;101893.63;7389824;19;20427;-40
2023/08/16 06:42:49;;;;;;;24.63;10.30;;;;;;;16.02;100.00;101904.34;7366561;19;20406;-40
2023/08/16 06:45:19;;;;;;;13.10;5.70;;;;;;;16.03;100.00;101909.59;7391591;19;20689;-39
2023/08/16 06:47:48;;;;;;;10.87;5.03;;;;;;;16.20;100.00;101919.75;7367933;19;20474;-40
2023/08/16 06:50:21;;;;;;;11.23;4.93;;;;;;;16.29;100.00;101930.50;7390332;19;20419;-41
2023/08/16 06:52:53;;;;;;;9.60;4.90;;;;;;;16.27;100.00;101942.59;7366685;19;20758;-40
2023/08/16 06:55:22;;;;;;;6.57;3.73;;;;;;;16.36;100.00;101959.38;7390675;19;20383;-39
2023/08/16 06:57:55;;;;;;;8.73;3.80;;;;;;;16.45;100.00;101965.81;7369776;19;20474;-41
2023/08/16 07:00:24;;;;;;;13.97;5.43;;;;;;;16.45;100.00;101981.44;7389870;19;20439;-40
2023/08/16 07:02:55;;;;;;;12.00;4.90;;;;;;;16.44;100.00;101999.63;7367727;19;20399;-42
2023/08/16 07:05:25;;;;;;;11.30;5.60;;;;;;;16.50;100.00;102012.88;7390910;19;20395;-41
2023/08/16 07:07:56;;;;;;;13.23;4.63;;;;;;;16.56;100.00;102023.50;7364636;19;20410;-44
2023/08/16 07:10:25;;;;;;;6.73;2.70;;;;;;;16.49;100.00;102026.72;7390145;19;21018;-40
2023/08/16 07:12:57;;;;;;;7.20;3.10;;;;;;;16.49;100.00;102028.44;7367681;19;20403;-41
2023/08/16 07:15:27;;;;;;;12.50;2.97;;;;;;;16.59;100.00;102047.09;7388839;19;20769;-42
2023/08/16 07:17:57;;;;;;;7.70;2.97;;;;;;;16.66;100.00;102047.31;7368212;19;20399;-40
2023/08/16 07:20:26;;;;;;;5.87;2.60;;;;;;;16.68;100.00;102076.91;7389405;19;20435;-42
2023/08/16 07:22:58;;;;;;;6.77;2.13;;;;;;;16.83;100.00;102082.69;7366925;19;20395;-43
2023/08/16 07:25:28;;;;;;;9.57;2.77;;;;;;;16.82;100.00;102100.91;7390515;19;20387;-43
2023/08/16 07:28:01;;;;;;;6.87;2.00;;;;;;;16.90;100.00;102106.38;7366055;19;20395;-41
2023/08/16 07:30:31;;;;;;;13.37;3.00;;;;;;;16.94;100.00;102111.78;7388321;19;20431;-43
2023/08/16 07:35:48;;;;;;;4.73;1.97;;;;;;;16.92;100.00;102141.22;7389087;19;20382;-43
2023/08/16 07:38:18;;;;;;;6.80;2.03;;;;;;;17.02;100.00;102145.97;7365884;19;20478;-41
2023/08/16 07:40:51;;;;;;;7.90;3.07;;;;;;;17.03;100.00;102144.25;7388690;19;20383;-41
2023/08/16 07:43:23;;;;;;;6.60;1.93;;;;;;;16.96;100.00;102151.81;7367039;19;20413;-40
2023/08/16 07:45:54;;;;;;;5.70;2.40;;;;;;;17.04;100.00;102146.03;7388224;19;20387;-41
2023/08/16 07:48:24;;;;;;;11.50;3.10;;;;;;;16.98;100.00;102149.28;7366655;19;20982;-41
2023/08/16 07:50:54;;;;;;;8.70;3.00;;;;;;;17.08;100.00;102155.75;7389487;19;20380;-41
2023/08/16 07:53:25;;;;;;;8.90;2.67;;;;;;;17.17;100.00;102150.84;7365484;19;20407;-41
2023/08/16 07:55:54;;;;;;;15.50;7.20;;;;;;;17.30;100.00;102141.78;7390232;19;20419;-43
2023/08/16 07:58:27;;;;;;;6.33;2.17;;;;;;;17.35;100.00;102161.09;7363788;19;21034;-41
2023/08/16 08:00:57;;;;;;;17.63;8.57;;;;;;;17.52;100.00;102184.25;7389681;19;20761;-43
2023/08/16 08:03:26;;;;;;;6.60;3.60;;;;;;;17.63;100.00;102193.38;7364372;19;20436;-43
2023/08/16 08:06:03;;;;;;;8.07;2.70;;;;;;;17.64;100.00;102209.94;7388581;19;20379;-42
2023/08/16 08:08:32;;;;;;;11.20;3.13;;;;;;;17.72;100.00;102228.44;7363757;19;20471;-41
2023/08/16 08:11:02;;;;;;;28.53;8.23;;;;;;;17.81;100.00;102239.22;7391017;19;20788;-40
2023/08/16 08:13:34;;;;;;;7.30;2.70;;;;;;;17.90;100.00;102249.97;7366302;19;20425;-40
2023/08/16 08:16:04;;;;;;;70.50;31.77;;;;;;;17.97;100.00;102247.56;7392030;19;20487;-40
2023/08/16 08:18:33;;;;;;;15.37;5.47;;;;;;;17.92;100.00;102258.78;7364962;19;20490;-40
2023/08/16 08:21:03;;;;;;;4.80;2.23;;;;;;;18.04;100.00;102267.84;7393093;19;20475;-40
2023/08/16 08:23:33;;;;;;;8.63;2.50;;;;;;;18.17;100.00;102270.09;7365728;19;20438;-40
2023/08/16 08:26:02;;;;;;;8.53;2.80;;;;;;;18.09;100.00;102276.75;7393143;19;20491;-41
2023/08/16 08:28:35;;;;;;;4.20;2.23;;;;;;;18.19;100.00;102273.66;7364955;19;20465;-39
2023/08/16 08:31:05;;;;;;;5.40;3.20;;;;;;;18.33;100.00;102276.72;7392263;19;20444;-43
2023/08/16 08:33:35;;;;;;;9.30;3.33;;;;;;;18.47;100.00;102278.91;7369958;19;20844;-43
2023/08/16 08:36:06;;;;;;;17.60;5.00;;;;;;;18.59;100.00;102273.19;7401105;19;20463;-44
2023/08/16 08:38:36;;;;;;;8.00;2.60;;;;;;;18.53;100.00;102262.53;7372513;19;20467;-43
2023/08/16 08:41:06;;;;;;;24.63;11.00;;;;;;;18.55;100.00;102266.09;7400652;19;20776;-44
2023/08/16 08:43:40;;;;;;;11.23;4.43;;;;;;;18.33;100.00;102281.06;7371691;19;20423;-46
2023/08/16 08:46:28;;;;;;;29.27;13.17;;;;;;;18.48;100.00;102292.03;7399358;19;20829;-47
2023/08/16 08:48:58;;;;;;;9.50;4.00;;;;;;;18.59;100.00;102304.56;7371166;19;20483;-41
2023/08/16 08:51:32;;;;;;;105.20;38.37;;;;;;;18.64;100.00;102308.22;7397213;19;20483;-45
2023/08/16 08:54:02;;;;;;;58.53;24.90;;;;;;;18.69;100.00;102311.88;7372806;19;20807;-40
2023/08/16 08:56:33;;;;;;;16.47;5.47;;;;;;;18.61;100.00;102324.69;7399590;19;20427;-44
2023/08/16 08:59:06;;;;;;;5.47;2.57;;;;;;;18.59;100.00;102328.97;7371626;19;20864;-40
2023/08/16 09:01:45;;;;;;;24.87;9.70;;;;;;;18.70;100.00;102324.09;7397769;19;20415;-39
2023/08/16 09:04:16;;;;;;;15.80;5.10;;;;;;;18.90;100.00;102326.47;7371321;19;20452;-42
2023/08/16 09:06:46;;;;;;;10.17;2.00;;;;;;;19.03;100.00;102322.56;7398156;19;20556;-46
2023/08/16 09:09:16;;;;;;;6.77;2.00;;;;;;;19.13;100.00;102321.13;7371250;19;20480;-44
2023/08/16 09:11:45;;;;;;;7.40;1.90;;;;;;;19.24;100.00;102306.66;7398495;19;20411;-43
2023/08/16 09:14:18;;;;;;;19.80;8.03;;;;;;;19.14;100.00;102315.03;7371037;19;20498;-42
2023/08/16 09:16:47;;;;;;;29.03;11.57;;;;;;;19.20;100.00;102320.47;7396754;19;20494;-40
2023/08/16 09:19:23;;;;;;;5.13;1.30;;;;;;;19.06;100.00;102327.88;7370503;19;20451;-42
2023/08/16 09:22:09;;;;;;;14.10;5.40;;;;;;;19.27;100.00;102321.53;7376012;19;20411;-42
2023/08/16 09:24:40;;;;;;;46.30;17.33;;;;;;;19.29;100.00;102323.34;7394312;19;20412;-42
2023/08/16 09:27:09;;;;;;;8.67;2.60;;;;;;;19.29;100.00;102325.97;7372012;19;20871;-40
2023/08/16 09:29:45;;;;;;;6.77;2.40;;;;;;;19.18;100.00;102331.72;7394856;19;20463;-41
2023/08/16 09:32:14;;;;;;;42.07;13.73;;;;;;;19.17;100.00;102333.44;7373230;19;20395;-41
2023/08/16 09:34:50;;;;;;;36.40;11.80;;;;;;;19.13;100.00;102332.44;7396933;19;20872;-41
2023/08/16 09:37:25;;;;;;;7.10;3.10;;;;;;;19.40;100.00;102338.50;7370008;19;20982;-45
2023/08/16 09:39:59;;;;;;;10.23;2.30;;;;;;;19.47;100.00;102335.22;7395540;19;20464;-44
2023/08/16 09:42:36;;;;;;;16.53;5.70;;;;;;;19.35;100.00;102343.59;7369152;19;20444;-44
2023/08/16 09:45:09;;;;;;;30.90;12.90;;;;;;;19.42;100.00;102352.50;7397562;19;20426;-40
2023/08/16 09:47:44;;;;;;;14.27;5.50;;;;;;;19.46;100.00;102338.69;7370224;19;20431;-44
2023/08/16 09:50:21;;;;;;;16.13;7.07;;;;;;;19.61;100.00;102342.59;7395640;19;20782;-42
2023/08/16 09:52:51;;;;;;;30.97;10.53;;;;;;;19.75;100.00;102336.03;7371564;19;20474;-42
2023/08/16 09:55:27;;;;;;;69.50;29.37;;;;;;;19.82;100.00;102330.13;7394979;19;20503;-40
2023/08/16 09:57:58;;;;;;;8.20;2.60;;;;;;;19.94;100.00;102331.31;7370705;19;20840;-41
2023/08/16 10:00:32;;;;;;;59.37;24.50;;;;;;;19.91;100.00;102339.97;7394172;19;20523;-40
2023/08/16 10:03:03;;;;;;;11.10;2.50;;;;;;;20.02;100.00;102339.41;7367435;19;20450;-43
2023/08/16 10:05:32;;;;;;;9.50;2.27;;;;;;;20.11;100.00;102334.44;7393806;19;20418;-44
2023/08/16 10:08:19;;;;;;;3.90;1.87;;;;;;;20.20;100.00;102326.81;7368752;19;20459;-43
2023/08/16 10:10:48;;;;;;;4.70;1.40;;;;;;;20.21;100.00;102335.56;7394952;19;20488;-43
2023/08/16 10:13:18;;;;;;;21.13;9.20;;;;;;;20.09;100.00;102331.78;7371229;19;20519;-41
2023/08/16 10:15:51;;;;;;;11.57;4.13;;;;;;;20.28;100.00;102336.59;7396955;19;20423;-43
2023/08/16 10:18:21;;;;;;;11.50;3.60;;;;;;;20.23;100.00;102331.25;7369285;19;20447;-42
2023/08/16 10:20:52;;;;;;;18.63;8.20;;;;;;;20.21;100.00;102333.81;7395480;19;20488;-40
2023/08/16 10:23:22;;;;;;;18.90;8.30;;;;;;;20.24;100.00;102322.53;7369619;19;20957;-43
2023/08/16 10:25:53;;;;;;;22.60;9.23;;;;;;;20.34;100.00;102327.19;7395756;19;20399;-40
2023/08/16 10:28:24;;;;;;;8.10;1.80;;;;;;;20.33;100.00;102335.00;7369206;19;20423;-44
2023/08/16 10:30:59;;;;;;;8.47;3.30;;;;;;;20.45;100.00;102329.19;7396784;19;20479;-43
2023/08/16 10:33:46;;;;;;;7.37;1.70;;;;;;;20.55;100.00;102336.44;7368126;19;21313;-42
2023/08/16 10:36:16;;;;;;;14.07;5.00;;;;;;;20.69;100.00;102325.41;7396882;19;20471;-41
2023/08/16 10:38:46;;;;;;;6.33;2.60;;;;;;;20.74;100.00;102336.88;7368761;19;20475;-43
2023/08/16 10:41:17;;;;;;;38.87;15.63;;;;;;;20.77;100.00;102329.13;7395495;19;20408;-41
2023/08/16 10:43:51;;;;;;;27.00;9.90;;;;;;;20.83;100.00;102310.00;7368751;19;20457;-43
2023/08/16 10:46:33;;;;;;;32.77;12.17;;;;;;;21.02;100.00;102304.38;7398042;19;20410;-45
2023/08/16 10:49:05;;;;;;;14.77;5.50;;;;;;;20.78;100.00;102281.06;7367891;19;20470;-41
2023/08/16 10:51:44;;;;;;;22.90;7.83;;;;;;;21.04;100.00;102304.41;7395338;19;20434;-43
2023/08/16 10:54:15;;;;;;;41.50;15.70;;;;;;;21.06;100.00;102270.34;7367836;19;20482;-42
2023/08/16 10:56:50;;;;;;;6.03;2.33;;;;;;;21.24;100.00;102280.34;7395542;19;20894;-41
2023/08/16 10:59:20;;;;;;;18.30;6.87;;;;;;;21.13;100.00;102240.75;7370623;19;20541;-45
2023/08/16 11:01:53;;;;;;;78.03;30.40;;;;;;;21.13;100.00;102209.28;7395164;19;20406;-42
2023/08/16 11:04:23;;;;;;;58.00;25.53;;;;;;;21.30;100.00;102233.22;7370944;19;20438;-45
2023/08/16 11:06:53;;;;;;;17.47;7.53;;;;;;;21.19;100.00;102167.41;7395416;19;20491;-41
2023/08/16 11:09:31;;;;;;;12.00;4.67;;;;;;;21.29;100.00;102127.34;7370263;19;21002;-47
2023/08/16 11:12:06;;;;;;;7.93;3.03;;;;;;;21.43;100.00;102124.13;7371874;19;20404;-40
2023/08/16 11:14:36;;;;;;;18.77;8.67;;;;;;;21.53;100.00;102183.81;7393299;19;20443;-40
2023/08/16 11:17:10;;;;;;;13.83;4.60;;;;;;;21.56;100.00;102214.47;7371547;19;20407;-42
2023/08/16 11:19:40;;;;;;;43.73;15.27;;;;;;;21.58;100.00;102208.41;7392602;19;20469;-42
2023/08/16 11:22:11;;;;;;;32.60;13.33;;;;;;;21.66;100.00;102205.94;7371169;19;20786;-41
2023/08/16 11:24:41;;;;;;;20.27;10.60;;;;;;;21.87;100.00;102159.91;7391638;19;20445;-44
2023/08/16 11:27:11;;;;;;;10.17;2.17;;;;;;;22.08;100.00;102232.06;7370746;19;20399;-40
2023/08/16 11:29:40;;;;;;;41.63;16.17;;;;;;;22.01;100.00;102059.41;7392644;19;20444;-40